sensor_id;sensor_type;location;lat;lon;timestamp;temperature;humidity
33994;DHT22;20673;48.980;8.138;2022-12-08T00:01:06;1.30;99.90
33994;DHT22;20673;48.980;8.138;2022-12-08T00:03:34;1.30;99.90
33994;DHT22;20673;48.980;8.138;2022-12-08T00:06:01;1.40;99.90
33994;DHT22;20673;48.980;8.138;2022-12-08T00:08:46;1.40;99.90
33994;DHT22;20673;48.980;8.138;2022-12-08T00:11:30;1.50;99.90
33994;DHT22;20673;48.980;8.138;2022-12-08T00:13:57;1.60;99.90
33994;DHT22;20673;48.980;8.138;2022-12-08T00:16:22;1.60;99.90
33994;DHT22;20673;48.980;8.138;2022-12-08T00:18:48;1.70;99.90
33994;DHT22;20673;48.980;8.138;2022-12-08T00:21:14;1.80;99.90
33994;DHT22;20673;48.980;8.138;2022-12-08T00:23:40;1.80;99.90
33994;DHT22;20673;48.980;8.138;2022-12-08T00:26:06;1.90;99.90
33994;DHT22;20673;48.980;8.138;2022-12-08T00:28:33;1.90;99.90
33994;DHT22;20673;48.980;8.138;2022-12-08T00:31:00;2.00;99.90
33994;DHT22;20673;48.980;8.138;2022-12-08T00:33:33;1.90;99.90
33994;DHT22;20673;48.980;8.138;2022-12-08T00:36:10;2.00;99.90
33994;DHT22;20673;48.980;8.138;2022-12-08T00:38:32;1.90;99.90
33994;DHT22;20673;48.980;8.138;2022-12-08T00:40:59;1.90;99.90
33994;DHT22;20673;48.980;8.138;2022-12-08T00:43:25;1.90;99.90
33994;DHT22;20673;48.980;8.138;2022-12-08T00:45:51;1.80;99.90
33994;DHT22;20673;48.980;8.138;2022-12-08T00:48:17;1.80;99.90
33994;DHT22;20673;48.980;8.138;2022-12-08T00:50:43;1.70;99.90
33994;DHT22;20673;48.980;8.138;2022-12-08T00:53:09;1.80;99.90
33994;DHT22;20673;48.980;8.138;2022-12-08T00:55:35;1.70;99.90
33994;DHT22;20673;48.980;8.138;2022-12-08T00:58:01;1.60;99.90
33994;DHT22;20673;48.980;8.138;2022-12-08T01:00:27;1.60;99.90
33994;DHT22;20673;48.980;8.138;2022-12-08T01:02:53;1.60;99.90
33994;DHT22;20673;48.980;8.138;2022-12-08T01:05:19;1.50;99.90
33994;DHT22;20673;48.980;8.138;2022-12-08T01:07:45;1.50;99.90
33994;DHT22;20673;48.980;8.138;2022-12-08T01:10:13;1.50;99.90
33994;DHT22;20673;48.980;8.138;2022-12-08T01:12:39;1.50;99.90
33994;DHT22;20673;48.980;8.138;2022-12-08T01:15:05;1.50;99.90
33994;DHT22;20673;48.980;8.138;2022-12-08T01:17:31;1.50;99.90
33994;DHT22;20673;48.980;8.138;2022-12-08T01:19:57;1.50;99.90
33994;DHT22;20673;48.980;8.138;2022-12-08T01:22:24;1.40;99.90
33994;DHT22;20673;48.980;8.138;2022-12-08T01:24:50;1.40;99.90
33994;DHT22;20673;48.980;8.138;2022-12-08T01:27:16;1.40;99.90
33994;DHT22;20673;48.980;8.138;2022-12-08T01:29:42;1.40;99.90
33994;DHT22;20673;48.980;8.138;2022-12-08T01:32:08;1.40;99.90
33994;DHT22;20673;48.980;8.138;2022-12-08T01:34:34;1.40;99.90
33994;DHT22;20673;48.980;8.138;2022-12-08T01:37:00;1.30;99.90
33994;DHT22;20673;48.980;8.138;2022-12-08T01:39:26;1.30;99.90
33994;DHT22;20673;48.980;8.138;2022-12-08T01:41:52;1.40;99.90
33994;DHT22;20673;48.980;8.138;2022-12-08T01:46:48;1.50;99.90
33994;DHT22;20673;48.980;8.138;2022-12-08T01:54:18;1.50;99.90
33994;DHT22;20673;48.980;8.138;2022-12-08T01:56:48;1.50;99.90
33994;DHT22;20673;48.980;8.138;2022-12-08T01:59:16;1.50;99.90
33994;DHT22;20673;48.980;8.138;2022-12-08T02:01:43;1.50;99.90
33994;DHT22;20673;48.980;8.138;2022-12-08T02:04:09;1.60;99.90
33994;DHT22;20673;48.980;8.138;2022-12-08T02:06:37;1.60;99.90
33994;DHT22;20673;48.980;8.138;2022-12-08T02:09:05;1.60;99.90
33994;DHT22;20673;48.980;8.138;2022-12-08T02:11:32;1.50;99.90
33994;DHT22;20673;48.980;8.138;2022-12-08T02:13:58;1.50;99.90
33994;DHT22;20673;48.980;8.138;2022-12-08T02:16:37;1.50;99.90
33994;DHT22;20673;48.980;8.138;2022-12-08T02:22:19;1.30;99.90
33994;DHT22;20673;48.980;8.138;2022-12-08T02:24:46;1.30;99.90
33994;DHT22;20673;48.980;8.138;2022-12-08T02:30:22;1.30;99.90
33994;DHT22;20673;48.980;8.138;2022-12-08T02:46:10;1.10;99.90
33994;DHT22;20673;48.980;8.138;2022-12-08T02:48:38;1.00;99.90
33994;DHT22;20673;48.980;8.138;2022-12-08T02:51:04;1.00;99.90
33994;DHT22;20673;48.980;8.138;2022-12-08T02:53:31;0.90;99.90
33994;DHT22;20673;48.980;8.138;2022-12-08T02:58:36;0.80;99.90
33994;DHT22;20673;48.980;8.138;2022-12-08T03:06:44;0.70;99.90
33994;DHT22;20673;48.980;8.138;2022-12-08T03:09:19;0.60;99.90
33994;DHT22;20673;48.980;8.138;2022-12-08T03:11:48;0.60;99.90
33994;DHT22;20673;48.980;8.138;2022-12-08T03:14:22;0.60;99.90
33994;DHT22;20673;48.980;8.138;2022-12-08T03:16:49;0.50;99.90
33994;DHT22;20673;48.980;8.138;2022-12-08T03:19:25;0.60;99.90
33994;DHT22;20673;48.980;8.138;2022-12-08T03:21:50;0.60;99.90
33994;DHT22;20673;48.980;8.138;2022-12-08T03:24:20;0.50;99.90
33994;DHT22;20673;48.980;8.138;2022-12-08T03:26:52;0.50;99.90
33994;DHT22;20673;48.980;8.138;2022-12-08T03:29:21;0.40;99.90
33994;DHT22;20673;48.980;8.138;2022-12-08T03:31:54;0.30;99.90
33994;DHT22;20673;48.980;8.138;2022-12-08T03:34:24;0.40;99.90
33994;DHT22;20673;48.980;8.138;2022-12-08T03:36:52;0.40;99.90
33994;DHT22;20673;48.980;8.138;2022-12-08T03:39:18;0.40;99.90
33994;DHT22;20673;48.980;8.138;2022-12-08T03:41:44;0.40;99.90
33994;DHT22;20673;48.980;8.138;2022-12-08T03:44:11;0.40;99.90
33994;DHT22;20673;48.980;8.138;2022-12-08T03:46:37;0.30;99.90
33994;DHT22;20673;48.980;8.138;2022-12-08T03:49:03;0.40;99.90
33994;DHT22;20673;48.980;8.138;2022-12-08T03:51:29;0.40;99.90
33994;DHT22;20673;48.980;8.138;2022-12-08T03:53:55;0.30;99.90
33994;DHT22;20673;48.980;8.138;2022-12-08T03:56:23;0.30;99.90
33994;DHT22;20673;48.980;8.138;2022-12-08T03:58:50;0.30;99.90
33994;DHT22;20673;48.980;8.138;2022-12-08T04:01:17;0.40;99.90
33994;DHT22;20673;48.980;8.138;2022-12-08T04:03:43;0.50;99.90
33994;DHT22;20673;48.980;8.138;2022-12-08T04:06:09;0.60;99.90
33994;DHT22;20673;48.980;8.138;2022-12-08T04:08:35;0.70;99.90
33994;DHT22;20673;48.980;8.138;2022-12-08T04:11:01;0.80;99.90
33994;DHT22;20673;48.980;8.138;2022-12-08T04:13:28;1.00;99.90
33994;DHT22;20673;48.980;8.138;2022-12-08T04:15:54;1.00;99.90
33994;DHT22;20673;48.980;8.138;2022-12-08T04:18:20;1.20;99.90
33994;DHT22;20673;48.980;8.138;2022-12-08T04:20:46;1.30;99.90
33994;DHT22;20673;48.980;8.138;2022-12-08T04:23:12;1.30;99.90
33994;DHT22;20673;48.980;8.138;2022-12-08T04:25:38;1.30;99.90
33994;DHT22;20673;48.980;8.138;2022-12-08T04:28:04;1.30;99.90
33994;DHT22;20673;48.980;8.138;2022-12-08T04:30:31;1.30;99.90
33994;DHT22;20673;48.980;8.138;2022-12-08T04:32:57;1.40;99.90
33994;DHT22;20673;48.980;8.138;2022-12-08T04:35:23;1.40;99.90
33994;DHT22;20673;48.980;8.138;2022-12-08T04:37:49;1.40;99.90
33994;DHT22;20673;48.980;8.138;2022-12-08T04:40:16;1.30;99.90
33994;DHT22;20673;48.980;8.138;2022-12-08T04:42:42;1.30;99.90
33994;DHT22;20673;48.980;8.138;2022-12-08T04:45:09;1.30;99.90
33994;DHT22;20673;48.980;8.138;2022-12-08T04:47:35;1.20;99.90
33994;DHT22;20673;48.980;8.138;2022-12-08T04:50:01;1.20;99.90
33994;DHT22;20673;48.980;8.138;2022-12-08T04:52:28;1.30;99.90
33994;DHT22;20673;48.980;8.138;2022-12-08T04:54:54;1.30;99.90
33994;DHT22;20673;48.980;8.138;2022-12-08T04:57:20;1.30;99.90
33994;DHT22;20673;48.980;8.138;2022-12-08T04:59:46;1.20;99.90
33994;DHT22;20673;48.980;8.138;2022-12-08T05:02:12;1.30;99.90
33994;DHT22;20673;48.980;8.138;2022-12-08T05:04:38;1.20;99.90
33994;DHT22;20673;48.980;8.138;2022-12-08T05:07:04;1.30;99.90
33994;DHT22;20673;48.980;8.138;2022-12-08T05:09:30;1.30;99.90
33994;DHT22;20673;48.980;8.138;2022-12-08T05:11:56;1.20;99.90
33994;DHT22;20673;48.980;8.138;2022-12-08T05:14:22;1.20;99.90
33994;DHT22;20673;48.980;8.138;2022-12-08T05:16:48;1.10;99.90
33994;DHT22;20673;48.980;8.138;2022-12-08T05:19:14;1.20;99.90
33994;DHT22;20673;48.980;8.138;2022-12-08T05:21:40;1.30;99.90
33994;DHT22;20673;48.980;8.138;2022-12-08T05:24:07;1.20;99.90
33994;DHT22;20673;48.980;8.138;2022-12-08T05:26:33;1.20;99.90
33994;DHT22;20673;48.980;8.138;2022-12-08T05:28:59;1.20;99.90
33994;DHT22;20673;48.980;8.138;2022-12-08T05:31:25;1.10;99.90
33994;DHT22;20673;48.980;8.138;2022-12-08T05:33:51;1.20;99.90
33994;DHT22;20673;48.980;8.138;2022-12-08T05:36:18;1.20;99.90
33994;DHT22;20673;48.980;8.138;2022-12-08T05:38:44;1.20;99.90
33994;DHT22;20673;48.980;8.138;2022-12-08T05:41:15;1.10;99.90
33994;DHT22;20673;48.980;8.138;2022-12-08T05:43:43;1.10;99.90
33994;DHT22;20673;48.980;8.138;2022-12-08T05:46:09;1.10;99.90
33994;DHT22;20673;48.980;8.138;2022-12-08T05:48:35;1.10;99.90
33994;DHT22;20673;48.980;8.138;2022-12-08T05:51:02;1.00;99.90
33994;DHT22;20673;48.980;8.138;2022-12-08T05:53:28;1.10;99.90
33994;DHT22;20673;48.980;8.138;2022-12-08T05:55:54;1.10;99.90
33994;DHT22;20673;48.980;8.138;2022-12-08T05:58:20;1.10;99.90
33994;DHT22;20673;48.980;8.138;2022-12-08T06:00:47;1.10;99.90
33994;DHT22;20673;48.980;8.138;2022-12-08T06:03:15;1.20;99.90
33994;DHT22;20673;48.980;8.138;2022-12-08T06:05:43;1.20;99.90
33994;DHT22;20673;48.980;8.138;2022-12-08T06:08:10;1.10;99.90
33994;DHT22;20673;48.980;8.138;2022-12-08T06:10:38;1.20;99.90
33994;DHT22;20673;48.980;8.138;2022-12-08T06:13:05;1.20;99.90
33994;DHT22;20673;48.980;8.138;2022-12-08T06:15:33;1.20;99.90
33994;DHT22;20673;48.980;8.138;2022-12-08T06:17:59;1.30;99.90
33994;DHT22;20673;48.980;8.138;2022-12-08T06:20:25;1.20;99.90
33994;DHT22;20673;48.980;8.138;2022-12-08T06:22:52;1.30;99.90
33994;DHT22;20673;48.980;8.138;2022-12-08T06:25:20;1.30;99.90
33994;DHT22;20673;48.980;8.138;2022-12-08T06:27:46;1.30;99.90
33994;DHT22;20673;48.980;8.138;2022-12-08T06:30:12;1.30;99.90
33994;DHT22;20673;48.980;8.138;2022-12-08T06:32:39;1.30;99.90
33994;DHT22;20673;48.980;8.138;2022-12-08T06:35:05;1.20;99.90
33994;DHT22;20673;48.980;8.138;2022-12-08T06:37:31;1.30;99.90
33994;DHT22;20673;48.980;8.138;2022-12-08T06:39:57;1.30;99.90
33994;DHT22;20673;48.980;8.138;2022-12-08T06:42:24;1.30;99.90
33994;DHT22;20673;48.980;8.138;2022-12-08T06:45:08;1.30;99.90
33994;DHT22;20673;48.980;8.138;2022-12-08T06:47:35;1.30;99.90
33994;DHT22;20673;48.980;8.138;2022-12-08T06:50:01;1.20;99.90
33994;DHT22;20673;48.980;8.138;2022-12-08T06:52:28;1.20;99.90
33994;DHT22;20673;48.980;8.138;2022-12-08T06:54:54;1.20;99.90
33994;DHT22;20673;48.980;8.138;2022-12-08T06:57:20;1.20;99.90
33994;DHT22;20673;48.980;8.138;2022-12-08T06:59:46;1.30;99.90
33994;DHT22;20673;48.980;8.138;2022-12-08T07:02:12;1.20;99.90
33994;DHT22;20673;48.980;8.138;2022-12-08T07:04:38;1.20;99.90
33994;DHT22;20673;48.980;8.138;2022-12-08T07:07:04;1.20;99.90
33994;DHT22;20673;48.980;8.138;2022-12-08T07:09:30;1.20;99.90
33994;DHT22;20673;48.980;8.138;2022-12-08T07:11:55;1.20;99.90
33994;DHT22;20673;48.980;8.138;2022-12-08T07:14:21;1.30;99.90
33994;DHT22;20673;48.980;8.138;2022-12-08T07:16:51;1.30;99.90
33994;DHT22;20673;48.980;8.138;2022-12-08T07:19:19;1.30;99.90
33994;DHT22;20673;48.980;8.138;2022-12-08T07:21:45;1.30;99.90
33994;DHT22;20673;48.980;8.138;2022-12-08T07:24:11;1.30;99.90
33994;DHT22;20673;48.980;8.138;2022-12-08T07:26:38;1.30;99.90
33994;DHT22;20673;48.980;8.138;2022-12-08T07:29:04;1.30;99.90
33994;DHT22;20673;48.980;8.138;2022-12-08T07:31:30;1.40;99.90
33994;DHT22;20673;48.980;8.138;2022-12-08T07:33:56;1.40;99.90
33994;DHT22;20673;48.980;8.138;2022-12-08T07:36:22;1.50;99.90
33994;DHT22;20673;48.980;8.138;2022-12-08T07:38:49;1.50;99.90
33994;DHT22;20673;48.980;8.138;2022-12-08T07:41:18;1.50;99.90
33994;DHT22;20673;48.980;8.138;2022-12-08T07:43:46;1.60;99.90
33994;DHT22;20673;48.980;8.138;2022-12-08T07:46:13;1.50;99.90
33994;DHT22;20673;48.980;8.138;2022-12-08T07:48:41;1.50;99.90
33994;DHT22;20673;48.980;8.138;2022-12-08T07:51:07;1.50;99.90
33994;DHT22;20673;48.980;8.138;2022-12-08T07:53:35;1.60;99.90
33994;DHT22;20673;48.980;8.138;2022-12-08T07:56:04;1.70;99.90
33994;DHT22;20673;48.980;8.138;2022-12-08T07:58:30;1.70;99.90
33994;DHT22;20673;48.980;8.138;2022-12-08T08:00:56;1.70;99.90
33994;DHT22;20673;48.980;8.138;2022-12-08T08:03:22;1.70;99.90
33994;DHT22;20673;48.980;8.138;2022-12-08T08:05:48;1.70;99.90
33994;DHT22;20673;48.980;8.138;2022-12-08T08:08:15;1.70;99.90
33994;DHT22;20673;48.980;8.138;2022-12-08T08:10:41;1.70;99.90
33994;DHT22;20673;48.980;8.138;2022-12-08T08:13:08;1.80;99.90
33994;DHT22;20673;48.980;8.138;2022-12-08T08:15:34;1.80;99.90
33994;DHT22;20673;48.980;8.138;2022-12-08T08:18:00;1.80;99.90
33994;DHT22;20673;48.980;8.138;2022-12-08T08:20:26;1.80;99.90
33994;DHT22;20673;48.980;8.138;2022-12-08T08:22:52;1.90;99.90
33994;DHT22;20673;48.980;8.138;2022-12-08T08:25:18;2.00;99.90
33994;DHT22;20673;48.980;8.138;2022-12-08T08:27:47;1.90;99.90
33994;DHT22;20673;48.980;8.138;2022-12-08T08:30:14;2.00;99.90
33994;DHT22;20673;48.980;8.138;2022-12-08T08:32:40;2.00;99.90
33994;DHT22;20673;48.980;8.138;2022-12-08T08:35:07;2.00;99.90
33994;DHT22;20673;48.980;8.138;2022-12-08T08:37:33;2.00;99.90
33994;DHT22;20673;48.980;8.138;2022-12-08T08:40:00;2.00;99.90
33994;DHT22;20673;48.980;8.138;2022-12-08T08:42:26;2.10;99.90
33994;DHT22;20673;48.980;8.138;2022-12-08T08:44:52;2.00;99.90
33994;DHT22;20673;48.980;8.138;2022-12-08T08:47:18;2.10;99.90
33994;DHT22;20673;48.980;8.138;2022-12-08T08:49:44;2.10;99.90
33994;DHT22;20673;48.980;8.138;2022-12-08T08:52:11;2.10;99.90
33994;DHT22;20673;48.980;8.138;2022-12-08T08:54:37;2.10;99.90
33994;DHT22;20673;48.980;8.138;2022-12-08T08:57:03;2.20;99.90
33994;DHT22;20673;48.980;8.138;2022-12-08T08:59:31;2.20;99.90
33994;DHT22;20673;48.980;8.138;2022-12-08T09:01:58;2.20;99.90
33994;DHT22;20673;48.980;8.138;2022-12-08T09:04:24;2.30;99.90
33994;DHT22;20673;48.980;8.138;2022-12-08T09:06:50;2.30;99.90
33994;DHT22;20673;48.980;8.138;2022-12-08T09:09:16;2.30;99.90
33994;DHT22;20673;48.980;8.138;2022-12-08T09:11:42;2.30;99.90
33994;DHT22;20673;48.980;8.138;2022-12-08T09:14:10;2.40;99.90
33994;DHT22;20673;48.980;8.138;2022-12-08T09:16:39;2.40;99.90
33994;DHT22;20673;48.980;8.138;2022-12-08T09:19:06;2.40;99.90
33994;DHT22;20673;48.980;8.138;2022-12-08T09:21:32;2.30;99.90
33994;DHT22;20673;48.980;8.138;2022-12-08T09:23:58;2.40;99.90
33994;DHT22;20673;48.980;8.138;2022-12-08T09:26:26;2.40;99.90
33994;DHT22;20673;48.980;8.138;2022-12-08T09:28:53;2.40;99.90
33994;DHT22;20673;48.980;8.138;2022-12-08T09:31:20;2.50;99.90
33994;DHT22;20673;48.980;8.138;2022-12-08T09:33:47;2.50;99.90
33994;DHT22;20673;48.980;8.138;2022-12-08T09:36:16;2.50;99.90
33994;DHT22;20673;48.980;8.138;2022-12-08T09:38:42;2.50;99.90
33994;DHT22;20673;48.980;8.138;2022-12-08T09:46:58;2.70;99.90
33994;DHT22;20673;48.980;8.138;2022-12-08T09:49:38;2.80;99.90
33994;DHT22;20673;48.980;8.138;2022-12-08T09:52:10;2.90;99.90
33994;DHT22;20673;48.980;8.138;2022-12-08T09:54:38;3.00;99.90
33994;DHT22;20673;48.980;8.138;2022-12-08T09:57:06;3.00;99.90
33994;DHT22;20673;48.980;8.138;2022-12-08T09:59:34;3.10;99.90
33994;DHT22;20673;48.980;8.138;2022-12-08T10:02:00;3.10;99.90
33994;DHT22;20673;48.980;8.138;2022-12-08T10:04:28;3.10;99.90
33994;DHT22;20673;48.980;8.138;2022-12-08T10:07:09;3.10;99.90
33994;DHT22;20673;48.980;8.138;2022-12-08T10:10:02;3.10;99.90
33994;DHT22;20673;48.980;8.138;2022-12-08T10:17:59;3.20;99.90
33994;DHT22;20673;48.980;8.138;2022-12-08T10:20:30;3.20;99.90
33994;DHT22;20673;48.980;8.138;2022-12-08T10:26:04;3.20;99.90
33994;DHT22;20673;48.980;8.138;2022-12-08T10:28:32;3.30;99.90
33994;DHT22;20673;48.980;8.138;2022-12-08T10:30:59;3.40;99.90
33994;DHT22;20673;48.980;8.138;2022-12-08T10:33:25;3.50;99.90
33994;DHT22;20673;48.980;8.138;2022-12-08T10:35:54;3.60;99.90
33994;DHT22;20673;48.980;8.138;2022-12-08T10:40:59;3.60;99.90
33994;DHT22;20673;48.980;8.138;2022-12-08T10:43:45;3.70;99.90
33994;DHT22;20673;48.980;8.138;2022-12-08T10:46:14;3.80;99.90
33994;DHT22;20673;48.980;8.138;2022-12-08T10:48:46;3.80;99.90
33994;DHT22;20673;48.980;8.138;2022-12-08T10:51:22;3.70;99.90
33994;DHT22;20673;48.980;8.138;2022-12-08T10:53:47;3.70;99.90
33994;DHT22;20673;48.980;8.138;2022-12-08T10:56:16;3.70;99.90
33994;DHT22;20673;48.980;8.138;2022-12-08T10:58:43;3.70;99.90
33994;DHT22;20673;48.980;8.138;2022-12-08T11:03:51;3.70;99.90
33994;DHT22;20673;48.980;8.138;2022-12-08T11:06:36;3.90;99.90
33994;DHT22;20673;48.980;8.138;2022-12-08T11:11:53;4.10;99.90
33994;DHT22;20673;48.980;8.138;2022-12-08T11:17:07;4.20;99.90
33994;DHT22;20673;48.980;8.138;2022-12-08T11:19:42;4.20;99.90
33994;DHT22;20673;48.980;8.138;2022-12-08T11:22:19;4.30;99.90
33994;DHT22;20673;48.980;8.138;2022-12-08T11:25:08;4.30;99.90
33994;DHT22;20673;48.980;8.138;2022-12-08T11:27:37;4.20;99.90
33994;DHT22;20673;48.980;8.138;2022-12-08T11:30:11;4.20;99.90
33994;DHT22;20673;48.980;8.138;2022-12-08T11:32:56;4.10;99.90
33994;DHT22;20673;48.980;8.138;2022-12-08T11:35:27;4.30;99.90
33994;DHT22;20673;48.980;8.138;2022-12-08T11:37:57;4.40;99.90
33994;DHT22;20673;48.980;8.138;2022-12-08T11:40:33;4.60;99.90
33994;DHT22;20673;48.980;8.138;2022-12-08T11:45:57;5.00;99.90
33994;DHT22;20673;48.980;8.138;2022-12-08T11:48:34;5.20;99.90
33994;DHT22;20673;48.980;8.138;2022-12-08T11:51:10;5.20;99.90
33994;DHT22;20673;48.980;8.138;2022-12-08T11:56:22;5.10;99.90
33994;DHT22;20673;48.980;8.138;2022-12-08T11:58:52;5.20;99.90
33994;DHT22;20673;48.980;8.138;2022-12-08T12:01:24;5.30;99.90
33994;DHT22;20673;48.980;8.138;2022-12-08T12:15:22;6.10;99.90
33994;DHT22;20673;48.980;8.138;2022-12-08T12:18:04;5.70;99.90
33994;DHT22;20673;48.980;8.138;2022-12-08T12:23:19;5.20;99.90
33994;DHT22;20673;48.980;8.138;2022-12-08T12:25:54;5.20;99.90
33994;DHT22;20673;48.980;8.138;2022-12-08T12:28:17;5.10;99.90
33994;DHT22;20673;48.980;8.138;2022-12-08T12:31:04;5.00;99.90
33994;DHT22;20673;48.980;8.138;2022-12-08T12:33:41;5.00;99.90
33994;DHT22;20673;48.980;8.138;2022-12-08T12:36:08;5.10;99.90
33994;DHT22;20673;48.980;8.138;2022-12-08T12:38:37;5.20;99.90
33994;DHT22;20673;48.980;8.138;2022-12-08T12:57:24;5.10;99.90
33994;DHT22;20673;48.980;8.138;2022-12-08T13:02:26;5.10;99.90
33994;DHT22;20673;48.980;8.138;2022-12-08T13:05:02;5.20;99.90
33994;DHT22;20673;48.980;8.138;2022-12-08T13:07:40;5.80;99.90
33994;DHT22;20673;48.980;8.138;2022-12-08T13:12:44;7.10;99.90
33994;DHT22;20673;48.980;8.138;2022-12-08T13:15:20;7.60;99.90
33994;DHT22;20673;48.980;8.138;2022-12-08T13:17:45;8.00;99.90
33994;DHT22;20673;48.980;8.138;2022-12-08T13:20:18;8.00;99.90
33994;DHT22;20673;48.980;8.138;2022-12-08T13:30:49;7.60;99.90
33994;DHT22;20673;48.980;8.138;2022-12-08T13:33:25;7.50;99.90
33994;DHT22;20673;48.980;8.138;2022-12-08T13:36:00;7.20;99.90
33994;DHT22;20673;48.980;8.138;2022-12-08T13:38:42;6.90;99.90
33994;DHT22;20673;48.980;8.138;2022-12-08T13:41:17;6.70;99.90
33994;DHT22;20673;48.980;8.138;2022-12-08T13:43:57;6.50;99.90
33994;DHT22;20673;48.980;8.138;2022-12-08T13:46:43;6.30;99.90
33994;DHT22;20673;48.980;8.138;2022-12-08T13:48:55;6.10;99.90
33994;DHT22;20673;48.980;8.138;2022-12-08T13:51:24;6.00;99.90
33994;DHT22;20673;48.980;8.138;2022-12-08T13:54:06;5.90;99.90
33994;DHT22;20673;48.980;8.138;2022-12-08T13:56:47;6.10;99.90
33994;DHT22;20673;48.980;8.138;2022-12-08T14:01:49;5.90;99.90
33994;DHT22;20673;48.980;8.138;2022-12-08T14:04:17;5.80;99.90
33994;DHT22;20673;48.980;8.138;2022-12-08T14:06:45;5.70;99.90
33994;DHT22;20673;48.980;8.138;2022-12-08T14:09:19;5.60;99.90
33994;DHT22;20673;48.980;8.138;2022-12-08T14:11:44;5.40;99.90
33994;DHT22;20673;48.980;8.138;2022-12-08T14:14:17;5.40;99.90
33994;DHT22;20673;48.980;8.138;2022-12-08T14:16:51;5.30;99.90
33994;DHT22;20673;48.980;8.138;2022-12-08T14:19:22;5.20;99.90
33994;DHT22;20673;48.980;8.138;2022-12-08T14:21:51;5.20;99.90
33994;DHT22;20673;48.980;8.138;2022-12-08T14:24:26;5.20;99.90
33994;DHT22;20673;48.980;8.138;2022-12-08T14:26:54;5.10;99.90
33994;DHT22;20673;48.980;8.138;2022-12-08T14:32:27;4.90;99.90
33994;DHT22;20673;48.980;8.138;2022-12-08T14:34:57;4.90;99.90
33994;DHT22;20673;48.980;8.138;2022-12-08T14:37:29;4.80;99.90
33994;DHT22;20673;48.980;8.138;2022-12-08T14:39:57;4.80;99.90
33994;DHT22;20673;48.980;8.138;2022-12-08T14:42:40;4.70;99.90
33994;DHT22;20673;48.980;8.138;2022-12-08T14:45:09;4.80;99.90
33994;DHT22;20673;48.980;8.138;2022-12-08T14:47:37;4.70;99.90
33994;DHT22;20673;48.980;8.138;2022-12-08T14:50:03;4.70;99.90
33994;DHT22;20673;48.980;8.138;2022-12-08T14:52:32;4.60;99.90
33994;DHT22;20673;48.980;8.138;2022-12-08T14:54:58;4.50;99.90
33994;DHT22;20673;48.980;8.138;2022-12-08T14:57:26;4.50;99.90
33994;DHT22;20673;48.980;8.138;2022-12-08T14:59:54;4.50;99.90
33994;DHT22;20673;48.980;8.138;2022-12-08T15:02:22;4.50;99.90
33994;DHT22;20673;48.980;8.138;2022-12-08T15:04:56;4.50;99.90
33994;DHT22;20673;48.980;8.138;2022-12-08T15:07:24;4.50;99.90
33994;DHT22;20673;48.980;8.138;2022-12-08T15:10:18;4.40;99.90
33994;DHT22;20673;48.980;8.138;2022-12-08T15:12:37;4.40;99.90
33994;DHT22;20673;48.980;8.138;2022-12-08T15:22:53;4.30;99.90
33994;DHT22;20673;48.980;8.138;2022-12-08T15:25:20;4.30;99.90
33994;DHT22;20673;48.980;8.138;2022-12-08T15:27:48;4.30;99.90
33994;DHT22;20673;48.980;8.138;2022-12-08T15:30:14;4.20;99.90
33994;DHT22;20673;48.980;8.138;2022-12-08T15:32:41;4.10;99.90
33994;DHT22;20673;48.980;8.138;2022-12-08T15:35:15;4.10;99.90
33994;DHT22;20673;48.980;8.138;2022-12-08T15:37:39;4.10;99.90
33994;DHT22;20673;48.980;8.138;2022-12-08T15:40:06;4.10;99.90
33994;DHT22;20673;48.980;8.138;2022-12-08T15:42:34;4.00;99.90
33994;DHT22;20673;48.980;8.138;2022-12-08T15:45:00;3.90;99.90
33994;DHT22;20673;48.980;8.138;2022-12-08T15:47:26;3.80;99.90
33994;DHT22;20673;48.980;8.138;2022-12-08T15:49:52;3.80;99.90
33994;DHT22;20673;48.980;8.138;2022-12-08T15:52:19;3.80;99.90
33994;DHT22;20673;48.980;8.138;2022-12-08T15:54:47;3.70;99.90
33994;DHT22;20673;48.980;8.138;2022-12-08T15:57:17;3.70;99.90
33994;DHT22;20673;48.980;8.138;2022-12-08T15:59:45;3.70;99.90
33994;DHT22;20673;48.980;8.138;2022-12-08T16:02:11;3.60;99.90
33994;DHT22;20673;48.980;8.138;2022-12-08T16:04:38;3.60;99.90
33994;DHT22;20673;48.980;8.138;2022-12-08T16:07:04;3.60;99.90
33994;DHT22;20673;48.980;8.138;2022-12-08T16:09:32;3.50;99.90
33994;DHT22;20673;48.980;8.138;2022-12-08T16:12:09;3.50;99.90
33994;DHT22;20673;48.980;8.138;2022-12-08T16:15:02;3.50;99.90
33994;DHT22;20673;48.980;8.138;2022-12-08T16:17:29;3.40;99.90
33994;DHT22;20673;48.980;8.138;2022-12-08T16:19:56;3.40;99.90
33994;DHT22;20673;48.980;8.138;2022-12-08T16:22:24;3.40;99.90
33994;DHT22;20673;48.980;8.138;2022-12-08T16:24:51;3.40;99.90
33994;DHT22;20673;48.980;8.138;2022-12-08T16:27:30;3.30;99.90
33994;DHT22;20673;48.980;8.138;2022-12-08T16:29:53;3.30;99.90
33994;DHT22;20673;48.980;8.138;2022-12-08T16:32:21;3.30;99.90
33994;DHT22;20673;48.980;8.138;2022-12-08T16:34:47;3.20;99.90
33994;DHT22;20673;48.980;8.138;2022-12-08T16:37:15;3.20;99.90
33994;DHT22;20673;48.980;8.138;2022-12-08T16:39:42;3.20;99.90
33994;DHT22;20673;48.980;8.138;2022-12-08T16:42:13;3.10;99.90
33994;DHT22;20673;48.980;8.138;2022-12-08T16:45:00;3.10;99.90
33994;DHT22;20673;48.980;8.138;2022-12-08T16:47:27;3.10;99.90
33994;DHT22;20673;48.980;8.138;2022-12-08T16:49:53;3.10;99.90
33994;DHT22;20673;48.980;8.138;2022-12-08T16:52:19;3.10;99.90
33994;DHT22;20673;48.980;8.138;2022-12-08T16:54:45;3.10;99.90
33994;DHT22;20673;48.980;8.138;2022-12-08T16:57:11;3.10;99.90
33994;DHT22;20673;48.980;8.138;2022-12-08T16:59:37;3.10;99.90
33994;DHT22;20673;48.980;8.138;2022-12-08T17:02:04;3.00;99.90
33994;DHT22;20673;48.980;8.138;2022-12-08T17:04:30;3.00;99.90
33994;DHT22;20673;48.980;8.138;2022-12-08T17:06:56;3.00;99.90
33994;DHT22;20673;48.980;8.138;2022-12-08T17:09:23;3.00;99.90
33994;DHT22;20673;48.980;8.138;2022-12-08T17:11:50;3.00;99.90
33994;DHT22;20673;48.980;8.138;2022-12-08T17:14:16;3.00;99.90
33994;DHT22;20673;48.980;8.138;2022-12-08T17:16:42;3.00;99.90
33994;DHT22;20673;48.980;8.138;2022-12-08T17:19:11;2.90;99.90
33994;DHT22;20673;48.980;8.138;2022-12-08T17:21:37;2.90;99.90
33994;DHT22;20673;48.980;8.138;2022-12-08T17:24:04;3.10;99.90
33994;DHT22;20673;48.980;8.138;2022-12-08T17:26:30;3.00;99.90
33994;DHT22;20673;48.980;8.138;2022-12-08T17:28:56;3.00;99.90
33994;DHT22;20673;48.980;8.138;2022-12-08T17:31:22;3.00;99.90
33994;DHT22;20673;48.980;8.138;2022-12-08T17:33:48;2.90;99.90
33994;DHT22;20673;48.980;8.138;2022-12-08T17:36:15;2.90;99.90
33994;DHT22;20673;48.980;8.138;2022-12-08T17:38:41;2.90;99.90
33994;DHT22;20673;48.980;8.138;2022-12-08T17:41:09;2.90;99.90
33994;DHT22;20673;48.980;8.138;2022-12-08T17:43:35;2.90;99.90
33994;DHT22;20673;48.980;8.138;2022-12-08T17:46:02;2.90;99.90
33994;DHT22;20673;48.980;8.138;2022-12-08T17:48:28;2.90;99.90
33994;DHT22;20673;48.980;8.138;2022-12-08T17:50:54;2.80;99.90
33994;DHT22;20673;48.980;8.138;2022-12-08T17:53:21;2.90;99.90
33994;DHT22;20673;48.980;8.138;2022-12-08T17:55:55;2.90;99.90